Time;durP1;ratioP1;P1;durP2;ratioP2;P2;SDS_P1;SDS_P2;PMS_P1;PMS_P2;Temp;Humidity;BMP_temperature;BMP_pressure;BME280_temperature;BME280_humidity;BME280_pressure;Samples;Min_cycle;Max_cycle;Signal;HPM_P1;HPM_P2
2022/10/08 00:01:01;;;;;;;6.28;2.67;;;;;;;;;;5046984;28;20049;-72
2022/10/08 00:03:34;;;;;;;10.43;2.55;;;;;;;;;;5046604;28;20056;-73
2022/10/08 00:06:12;;;;;;;10.63;2.92;;;;;;;;;;5046575;28;20060;-73
2022/10/08 00:08:47;;;;;;;6.35;2.55;;;;;;;;;;5044410;28;20040;-72
2022/10/08 00:11:29;;;;;;;6.38;2.30;;;;;;;;;;5044993;28;20044;-72
2022/10/08 00:14:00;;;;;;;6.45;2.28;;;;;;;;;;5043180;28;20518;-72
2022/10/08 00:16:34;;;;;;;4.85;2.17;;;;;;;;;;5044644;28;20040;-72
2022/10/08 00:19:11;;;;;;;6.82;2.78;;;;;;;;;;5044754;28;20049;-72
2022/10/08 00:21:43;;;;;;;6.50;2.03;;;;;;;;;;5044706;28;20507;-71
2022/10/08 00:24:16;;;;;;;8.25;2.63;;;;;;;;;;5045150;28;20041;-72
2022/10/08 00:26:45;;;;;;;5.18;2.42;;;;;;;;;;5045415;28;20504;-72
2022/10/08 00:29:19;;;;;;;6.72;2.20;;;;;;;;;;5046510;28;20052;-72
2022/10/08 00:31:50;;;;;;;9.38;2.40;;;;;;;;;;5046520;28;20055;-72
2022/10/08 00:34:24;;;;;;;4.30;2.30;;;;;;;;;;5046216;28;20064;-73
2022/10/08 00:36:55;;;;;;;14.40;2.70;;;;;;;;;;5046862;28;20057;-75
2022/10/08 00:39:24;;;;;;;7.65;2.90;;;;;;;;;;5046269;28;20055;-73
2022/10/08 00:41:55;;;;;;;10.98;3.20;;;;;;;;;;5046260;28;20545;-73
2022/10/08 00:44:52;;;;;;;19.80;7.88;;;;;;;;;;5045233;28;20060;-72
2022/10/08 00:47:43;;;;;;;44.05;17.48;;;;;;;;;;5046055;28;20531;-73
2022/10/08 00:50:34;;;;;;;27.20;9.93;;;;;;;;;;5044870;28;20048;-73
2022/10/08 00:53:09;;;;;;;13.65;6.50;;;;;;;;;;5045424;28;20045;-73
2022/10/08 00:55:41;;;;;;;12.38;4.45;;;;;;;;;;5046024;28;20053;-73
2022/10/08 00:58:24;;;;;;;8.25;3.13;;;;;;;;;;5046365;28;20500;-73
2022/10/08 01:00:55;;;;;;;8.90;3.40;;;;;;;;;;5046538;28;20049;-73
2022/10/08 01:03:26;;;;;;;6.75;3.15;;;;;;;;;;5046129;28;20048;-73
2022/10/08 01:06:06;;;;;;;5.63;2.92;;;;;;;;;;5046001;28;20048;-72
2022/10/08 01:09:14;;;;;;;7.32;2.78;;;;;;;;;;5046113;28;20037;-72
2022/10/08 01:12:08;;;;;;;7.82;3.40;;;;;;;;;;5034353;28;20060;-73
2022/10/08 01:14:53;;;;;;;10.48;4.60;;;;;;;;;;5046489;28;20103;-73
2022/10/08 01:17:47;;;;;;;8.30;5.85;;;;;;;;;;5046051;28;20052;-73
2022/10/08 01:20:50;;;;;;;13.48;6.90;;;;;;;;;;5045669;28;20047;-72
2022/10/08 01:23:48;;;;;;;13.23;4.93;;;;;;;;;;5046075;28;20222;-73
2022/10/08 01:26:36;;;;;;;9.45;4.22;;;;;;;;;;5045921;28;20495;-73
2022/10/08 01:29:27;;;;;;;10.18;4.32;;;;;;;;;;5046221;28;20064;-73
2022/10/08 01:32:12;;;;;;;6.70;3.70;;;;;;;;;;5046354;28;20052;-73
2022/10/08 01:35:00;;;;;;;5.63;3.42;;;;;;;;;;5047865;28;20047;-72
2022/10/08 01:37:35;;;;;;;9.90;3.35;;;;;;;;;;5046538;28;20060;-72
2022/10/08 01:40:17;;;;;;;5.72;3.38;;;;;;;;;;5049529;28;20052;-73
2022/10/08 01:42:51;;;;;;;10.80;2.80;;;;;;;;;;5049799;28;20060;-72
2022/10/08 01:45:30;;;;;;;5.40;2.95;;;;;;;;;;5049073;28;20048;-73
2022/10/08 01:48:05;;;;;;;10.50;3.05;;;;;;;;;;5050097;28;20500;-72
2022/10/08 01:50:52;;;;;;;4.50;3.00;;;;;;;;;;5050073;28;20049;-72
2022/10/08 01:53:26;;;;;;;6.22;3.00;;;;;;;;;;5049676;28;20683;-73
2022/10/08 01:55:59;;;;;;;5.45;2.83;;;;;;;;;;5049356;28;20396;-71
2022/10/08 01:58:42;;;;;;;8.93;3.17;;;;;;;;;;5047939;28;20060;-71
2022/10/08 02:01:35;;;;;;;8.20;3.10;;;;;;;;;;5049190;28;20052;-71
2022/10/08 02:06:57;;;;;;;8.38;2.85;;;;;;;;;;5049422;28;20041;-72
2022/10/08 02:09:29;;;;;;;8.52;3.50;;;;;;;;;;5048969;28;20053;-74
2022/10/08 02:12:00;;;;;;;8.25;4.25;;;;;;;;;;5049129;28;20053;-72
2022/10/08 02:14:32;;;;;;;10.07;6.28;;;;;;;;;;5049587;28;20075;-72
2022/10/08 02:17:16;;;;;;;8.45;5.68;;;;;;;;;;5048786;28;20082;-71
2022/10/08 02:19:55;;;;;;;10.18;5.88;;;;;;;;;;5049148;28;20052;-72
2022/10/08 02:22:40;;;;;;;7.25;4.60;;;;;;;;;;5049084;28;20049;-71
2022/10/08 02:25:28;;;;;;;9.73;4.53;;;;;;;;;;5048517;28;20049;-72
2022/10/08 02:28:30;;;;;;;7.72;4.32;;;;;;;;;;5048558;28;20040;-71
2022/10/08 02:31:26;;;;;;;8.27;4.80;;;;;;;;;;5040592;28;20073;-72
2022/10/08 02:34:31;;;;;;;11.07;5.78;;;;;;;;;;5045878;28;20080;-72
2022/10/08 02:37:08;;;;;;;11.63;4.05;;;;;;;;;;5037657;28;20056;-72
2022/10/08 02:39:42;;;;;;;8.25;3.78;;;;;;;;;;5049321;28;20052;-71
2022/10/08 02:42:17;;;;;;;5.25;3.38;;;;;;;;;;5049158;28;20508;-71
2022/10/08 02:45:19;;;;;;;8.32;4.03;;;;;;;;;;5048537;28;20064;-72
2022/10/08 02:47:53;;;;;;;6.05;3.03;;;;;;;;;;5043973;28;20056;-71
2022/10/08 02:50:26;;;;;;;7.43;3.30;;;;;;;;;;5047698;28;20519;-71
2022/10/08 02:52:57;;;;;;;6.60;3.13;;;;;;;;;;5047475;28;20037;-71
2022/10/08 02:55:39;;;;;;;6.03;3.22;;;;;;;;;;5048758;28;20053;-72
2022/10/08 02:58:12;;;;;;;7.43;3.72;;;;;;;;;;5048005;28;20048;-72
2022/10/08 03:00:59;;;;;;;5.85;2.78;;;;;;;;;;5048485;28;20049;-72
2022/10/08 03:03:37;;;;;;;6.18;3.45;;;;;;;;;;5047307;28;20144;-72
2022/10/08 03:06:10;;;;;;;7.18;3.78;;;;;;;;;;5048399;28;20037;-73
2022/10/08 03:08:45;;;;;;;6.38;3.22;;;;;;;;;;5047478;28;20052;-71
2022/10/08 03:11:16;;;;;;;9.43;3.70;;;;;;;;;;5047415;28;20056;-72
2022/10/08 03:13:49;;;;;;;7.68;3.85;;;;;;;;;;5047871;28;20052;-72
2022/10/08 03:16:23;;;;;;;7.53;3.28;;;;;;;;;;5048206;28;20404;-71
2022/10/08 03:18:57;;;;;;;6.93;3.35;;;;;;;;;;5047656;28;20056;-71
2022/10/08 03:21:28;;;;;;;7.38;3.05;;;;;;;;;;5047793;28;20523;-71
2022/10/08 03:23:59;;;;;;;7.95;3.45;;;;;;;;;;5047632;28;20037;-72
2022/10/08 03:26:29;;;;;;;7.72;3.47;;;;;;;;;;5046895;28;20049;-70
2022/10/08 03:28:58;;;;;;;;;;;;;;;;;;5048346;28;20053;-73
2022/10/08 03:31:28;;;;;;;7.05;3.22;;;;;;;;;;5046198;28;19929;-72
2022/10/08 03:33:57;;;;;;;7.95;3.80;;;;;;;;;;5047585;28;20524;-71
2022/10/08 03:36:27;;;;;;;;;;;;;;;;;;5046467;28;20060;-72
2022/10/08 03:38:57;;;;;;;10.60;5.47;;;;;;;;;;5047041;28;20319;-72
2022/10/08 03:41:30;;;;;;;12.88;4.60;;;;;;;;;;5047366;28;20053;-72
2022/10/08 03:44:00;;;;;;;10.55;4.82;;;;;;;;;;5047336;28;20061;-71
2022/10/08 03:46:30;;;;;;;9.63;4.90;;;;;;;;;;5047447;28;20142;-72
2022/10/08 03:48:59;;;;;;;7.85;4.35;;;;;;;;;;5047500;28;20412;-72
2022/10/08 03:51:29;;;;;;;;;;;;;;;;;;5048862;28;20396;-71
2022/10/08 03:53:58;;;;;;;17.98;6.78;;;;;;;;;;5047501;28;19924;-72
2022/10/08 03:56:28;;;;;;;13.07;6.57;;;;;;;;;;5045713;28;20060;-71
2022/10/08 03:58:58;;;;;;;;;;;;;;;;;;5047501;28;20124;-72
2022/10/08 04:01:28;;;;;;;7.63;4.10;;;;;;;;;;5046956;28;19932;-71
2022/10/08 04:03:58;;;;;;;7.50;3.40;;;;;;;;;;5046906;28;20059;-71
2022/10/08 04:06:27;;;;;;;;;;;;;;;;;;5047379;28;20053;-72
2022/10/08 04:08:59;;;;;;;7.05;2.88;;;;;;;;;;5047398;28;19925;-77
2022/10/08 04:11:30;;;;;;;6.28;2.97;;;;;;;;;;5047110;28;20044;-71
2022/10/08 04:14:00;;;;;;;10.68;3.20;;;;;;;;;;5045533;28;20044;-71
2022/10/08 04:16:29;;;;;;;6.75;3.30;;;;;;;;;;5047398;28;20041;-72
2022/10/08 04:18:59;;;;;;;;;;;;;;;;;;5046663;28;20056;-71
2022/10/08 04:21:30;;;;;;;10.70;2.85;;;;;;;;;;5046723;28;19928;-71
2022/10/08 04:24:00;;;;;;;6.13;2.88;;;;;;;;;;5046345;28;20048;-72
2022/10/08 04:26:30;;;;;;;7.88;2.75;;;;;;;;;;5046621;28;20045;-72
2022/10/08 04:29:00;;;;;;;7.88;3.00;;;;;;;;;;5046891;28;20055;-71
2022/10/08 04:31:30;;;;;;;7.30;3.03;;;;;;;;;;5046675;28;20738;-71
2022/10/08 04:34:00;;;;;;;9.13;3.33;;;;;;;;;;5046000;28;20064;-71
2022/10/08 04:36:29;;;;;;;7.10;3.30;;;;;;;;;;5046657;28;20503;-71
2022/10/08 04:38:59;;;;;;;;;;;;;;;;;;5045900;28;20044;-71
2022/10/08 04:41:28;;;;;;;8.70;2.92;;;;;;;;;;5046978;28;20723;-72
2022/10/08 04:43:59;;;;;;;;;;;;;;;;;;5046907;28;20353;-71
2022/10/08 04:46:29;;;;;;;12.27;3.47;;;;;;;;;;5046044;28;19924;-71
2022/10/08 04:48:59;;;;;;;;;;;;;;;;;;5046929;28;20507;-72
2022/10/08 04:51:29;;;;;;;9.82;2.65;;;;;;;;;;5046177;28;20392;-71
2022/10/08 04:53:58;;;;;;;6.32;3.17;;;;;;;;;;5046058;28;20520;-74
2022/10/08 04:56:30;;;;;;;7.85;2.78;;;;;;;;;;5046352;28;20059;-71
2022/10/08 04:59:01;;;;;;;6.57;2.92;;;;;;;;;;5046299;28;20526;-71
2022/10/08 05:01:31;;;;;;;3.92;2.85;;;;;;;;;;5046213;28;20049;-72
2022/10/08 05:04:00;;;;;;;4.68;2.35;;;;;;;;;;5046427;28;20052;-72
2022/10/08 05:06:31;;;;;;;7.97;2.67;;;;;;;;;;5046541;28;20052;-71
2022/10/08 05:09:02;;;;;;;9.93;2.83;;;;;;;;;;5046501;28;20049;-71
2022/10/08 05:11:33;;;;;;;6.75;3.47;;;;;;;;;;5045909;28;20060;-71
2022/10/08 05:14:03;;;;;;;4.55;2.80;;;;;;;;;;5049155;28;20049;-72
2022/10/08 05:16:32;;;;;;;11.15;2.72;;;;;;;;;;5050327;28;20539;-72
2022/10/08 05:19:03;;;;;;;10.52;2.80;;;;;;;;;;5048865;28;20055;-71
2022/10/08 05:21:33;;;;;;;6.18;2.95;;;;;;;;;;5049763;28;20415;-71
2022/10/08 05:24:07;;;;;;;5.63;2.72;;;;;;;;;;5049669;28;20049;-71
2022/10/08 05:26:39;;;;;;;6.70;3.05;;;;;;;;;;5050073;28;20423;-72
2022/10/08 05:29:29;;;;;;;4.57;2.42;;;;;;;;;;5050248;28;20045;-71
2022/10/08 05:31:59;;;;;;;8.38;2.72;;;;;;;;;;5049230;28;20037;-70
2022/10/08 05:34:28;;;;;;;6.38;2.85;;;;;;;;;;5048733;28;20049;-71
2022/10/08 05:36:58;;;;;;;6.43;2.53;;;;;;;;;;5049537;28;20071;-71
2022/10/08 05:39:28;;;;;;;7.75;2.78;;;;;;;;;;5048761;28;20084;-71
2022/10/08 05:41:58;;;;;;;4.88;2.47;;;;;;;;;;5048324;28;20044;-71
2022/10/08 05:44:27;;;;;;;;;;;;;;;;;;5050101;28;20049;-71
2022/10/08 05:47:00;;;;;;;10.68;3.40;;;;;;;;;;5049141;28;19928;-72
2022/10/08 05:49:29;;;;;;;;;;;;;;;;;;5049729;28;20048;-71
2022/10/08 05:51:59;;;;;;;4.25;2.53;;;;;;;;;;5049850;28;20398;-71
2022/10/08 05:54:28;;;;;;;;;;;;;;;;;;5050408;28;20048;-71
2022/10/08 05:56:58;;;;;;;10.85;2.70;;;;;;;;;;5049474;28;20406;-71
2022/10/08 05:59:28;;;;;;;6.20;2.78;;;;;;;;;;5049365;28;20057;-71
2022/10/08 06:01:57;;;;;;;6.30;2.30;;;;;;;;;;5049406;28;20052;-71
2022/10/08 06:04:27;;;;;;;5.22;2.33;;;;;;;;;;5049298;28;20040;-71
2022/10/08 06:06:56;;;;;;;;;;;;;;;;;;5049743;28;20044;-72
2022/10/08 06:09:26;;;;;;;5.38;1.90;;;;;;;;;;5049097;28;19925;-71
2022/10/08 06:11:56;;;;;;;5.20;2.30;;;;;;;;;;5048867;28;20598;-71
2022/10/08 06:14:26;;;;;;;5.32;2.72;;;;;;;;;;5049064;28;20037;-72
2022/10/08 06:16:56;;;;;;;;;;;;;;;;;;5049917;28;20068;-71
2022/10/08 06:19:25;;;;;;;11.52;2.72;;;;;;;;;;5049052;28;19932;-71
2022/10/08 06:21:54;;;;;;;;;;;;;;;;;;5049507;28;20053;-72
2022/10/08 06:24:25;;;;;;;5.57;2.60;;;;;;;;;;5046271;28;19929;-71
2022/10/08 06:26:54;;;;;;;7.45;2.33;;;;;;;;;;5049026;28;20063;-72
2022/10/08 06:29:25;;;;;;;5.50;2.45;;;;;;;;;;5049262;28;20048;-71
2022/10/08 06:31:55;;;;;;;7.30;2.45;;;;;;;;;;5048964;28;20049;-71
2022/10/08 06:34:24;;;;;;;;;;;;;;;;;;5048931;28;20056;-71
2022/10/08 06:36:54;;;;;;;3.97;1.90;;;;;;;;;;5047829;28;19925;-71
2022/10/08 06:39:23;;;;;;;6.75;3.03;;;;;;;;;;5048940;28;20428;-71
2022/10/08 06:41:54;;;;;;;3.95;2.25;;;;;;;;;;5048428;28;20531;-71
2022/10/08 06:44:23;;;;;;;7.07;2.55;;;;;;;;;;5048466;28;20045;-71
2022/10/08 06:46:53;;;;;;;3.88;2.03;;;;;;;;;;5048635;28;20075;-71
2022/10/08 06:49:25;;;;;;;11.18;2.20;;;;;;;;;;5048560;28;20097;-71
2022/10/08 06:51:55;;;;;;;3.85;2.00;;;;;;;;;;5048742;28;20041;-75
2022/10/08 06:54:26;;;;;;;4.95;1.88;;;;;;;;;;5048036;28;20427;-71
2022/10/08 06:56:56;;;;;;;4.30;2.00;;;;;;;;;;5048021;28;20480;-71
2022/10/08 06:59:25;;;;;;;5.82;2.45;;;;;;;;;;5048249;28;20052;-71
2022/10/08 07:01:55;;;;;;;6.00;1.75;;;;;;;;;;5046573;28;20048;-71
2022/10/08 07:04:25;;;;;;;3.80;2.08;;;;;;;;;;5047925;28;20060;-71
2022/10/08 07:06:54;;;;;;;;;;;;;;;;;;5048623;28;21133;-71
2022/10/08 07:09:24;;;;;;;4.70;1.70;;;;;;;;;;5047177;28;19935;-71
2022/10/08 07:11:53;;;;;;;;;;;;;;;;;;5048684;28;20053;-71
2022/10/08 07:14:23;;;;;;;3.08;1.77;;;;;;;;;;5047571;28;19932;-71
2022/10/08 07:16:53;;;;;;;3.35;1.92;;;;;;;;;;5047585;28;20052;-70
2022/10/08 07:19:23;;;;;;;;;;;;;;;;;;5048214;28;20041;-72
2022/10/08 07:21:52;;;;;;;6.20;2.33;;;;;;;;;;5048015;28;19924;-70
2022/10/08 07:24:28;;;;;;;5.63;2.00;;;;;;;;;;5047515;28;20068;-72
2022/10/08 07:26:57;;;;;;;;;;;;;;;;;;5048098;28;20044;-71
2022/10/08 07:29:27;;;;;;;3.75;1.70;;;;;;;;;;5047698;28;19929;-71
2022/10/08 07:31:56;;;;;;;;;;;;;;;;;;5046888;28;20063;-71
2022/10/08 07:34:26;;;;;;;3.22;1.73;;;;;;;;;;5047923;28;19932;-71
2022/10/08 07:36:56;;;;;;;3.30;1.80;;;;;;;;;;5046692;28;20064;-71
2022/10/08 07:39:26;;;;;;;2.90;1.80;;;;;;;;;;5047642;28;20060;-71
2022/10/08 07:41:56;;;;;;;5.18;1.80;;;;;;;;;;5046999;28;20048;-71
2022/10/08 07:44:25;;;;;;;3.92;1.77;;;;;;;;;;5047646;28;20059;-71
2022/10/08 07:46:55;;;;;;;2.15;1.65;;;;;;;;;;5047018;28;20053;-71
2022/10/08 07:49:25;;;;;;;3.10;1.60;;;;;;;;;;5047292;28;20052;-71
2022/10/08 07:51:54;;;;;;;;;;;;;;;;;;5047963;28;20049;-71
2022/10/08 07:54:24;;;;;;;2.95;1.40;;;;;;;;;;5047359;28;19932;-71
2022/10/08 07:56:54;;;;;;;3.72;1.48;;;;;;;;;;5046682;28;20064;-71
2022/10/08 07:59:23;;;;;;;5.90;1.70;;;;;;;;;;5047487;28;20156;-71
2022/10/08 08:01:53;;;;;;;2.85;1.30;;;;;;;;;;5047589;28;20048;-71
2022/10/08 08:04:24;;;;;;;;;;;;;;;;;;5047034;28;20052;-71
2022/10/08 08:06:53;;;;;;;6.18;1.75;;;;;;;;;;5047495;28;19924;-71
2022/10/08 08:09:23;;;;;;;5.55;1.58;;;;;;;;;;5046939;28;20052;-71
2022/10/08 08:11:52;;;;;;;;;;;;;;;;;;5047740;28;20045;-71
2022/10/08 08:14:22;;;;;;;4.47;1.30;;;;;;;;;;5046807;28;19920;-71
2022/10/08 08:16:52;;;;;;;4.50;1.73;;;;;;;;;;5046287;28;20049;-71
2022/10/08 08:19:23;;;;;;;3.03;1.55;;;;;;;;;;5046593;28;20049;-71
2022/10/08 08:21:52;;;;;;;3.58;1.77;;;;;;;;;;5047069;28;20539;-71
2022/10/08 08:24:22;;;;;;;2.13;1.60;;;;;;;;;;5045942;28;20060;-71
2022/10/08 08:26:52;;;;;;;3.55;1.75;;;;;;;;;;5046331;28;20053;-70
2022/10/08 08:29:25;;;;;;;4.32;1.70;;;;;;;;;;5046732;28;20037;-71
2022/10/08 08:31:55;;;;;;;2.40;1.52;;;;;;;;;;5046318;28;20049;-70
2022/10/08 08:34:25;;;;;;;4.90;1.70;;;;;;;;;;5046547;28;20044;-72
2022/10/08 08:36:54;;;;;;;2.28;1.50;;;;;;;;;;5046936;28;20040;-72
2022/10/08 08:39:25;;;;;;;;;;;;;;;;;;5046860;28;20511;-71
2022/10/08 08:42:03;;;;;;;6.30;1.60;;;;;;;;;;5046034;28;19927;-73
2022/10/08 08:44:40;;;;;;;1.60;1.45;;;;;;;;;;5046671;28;20497;-71
2022/10/08 08:47:21;;;;;;;3.17;1.40;;;;;;;;;;5045764;28;20065;-71
2022/10/08 08:49:56;;;;;;;3.30;1.23;;;;;;;;;;5046666;28;20041;-71
2022/10/08 08:52:32;;;;;;;4.22;1.45;;;;;;;;;;5046279;28;20067;-72
2022/10/08 08:55:16;;;;;;;2.90;1.40;;;;;;;;;;5046290;28;20053;-72
2022/10/08 09:10:45;;;;;;;3.60;2.03;;;;;;;;;;5124556;27;20397;-70
2022/10/08 09:13:27;;;;;;;4.38;1.60;;;;;;;;;;5124667;28;20051;-70
2022/10/08 09:15:58;;;;;;;3.80;1.60;;;;;;;;;;5124747;28;20052;-80
2022/10/08 09:18:28;;;;;;;5.03;1.60;;;;;;;;;;5124434;28;20047;-71
2022/10/08 09:20:58;;;;;;;3.22;1.80;;;;;;;;;;5124026;28;20532;-70
2022/10/08 09:23:27;;;;;;;;;;;;;;;;;;5124571;28;20054;-74
2022/10/08 09:26:09;;;;;;;2.58;1.38;;;;;;;;;;5123840;28;19924;-71
2022/10/08 09:28:54;;;;;;;4.93;1.60;;;;;;;;;;5124216;28;20039;-70
2022/10/08 09:31:36;;;;;;;2.47;1.58;;;;;;;;;;5124029;28;20043;-70
2022/10/08 09:34:12;;;;;;;3.60;1.50;;;;;;;;;;5123836;28;20048;-70
2022/10/08 09:37:02;;;;;;;2.72;1.75;;;;;;;;;;5123958;28;20050;-71
2022/10/08 09:39:34;;;;;;;1.60;1.38;;;;;;;;;;5124232;28;20056;-71
2022/10/08 09:42:08;;;;;;;3.10;1.60;;;;;;;;;;5123763;28;20421;-71
2022/10/08 09:44:55;;;;;;;3.10;1.65;;;;;;;;;;5123467;28;20050;-70
2022/10/08 09:47:26;;;;;;;6.38;1.90;;;;;;;;;;5123806;28;20058;-71
2022/10/08 09:50:04;;;;;;;4.30;1.50;;;;;;;;;;5123396;28;20036;-71
2022/10/08 09:52:39;;;;;;;5.35;2.00;;;;;;;;;;5122184;28;20081;-71
2022/10/08 09:55:10;;;;;;;3.33;1.80;;;;;;;;;;5123606;28;20074;-72
2022/10/08 09:57:47;;;;;;;2.15;1.38;;;;;;;;;;5123531;28;20048;-72
2022/10/08 10:00:24;;;;;;;6.65;1.80;;;;;;;;;;5122894;28;20054;-71
2022/10/08 10:02:56;;;;;;;4.85;1.73;;;;;;;;;;5124097;28;20046;-72
2022/10/08 10:05:32;;;;;;;4.25;1.52;;;;;;;;;;5123460;28;20039;-72
2022/10/08 10:08:02;;;;;;;;;;;;;;;;;;5123606;27;20063;-72
2022/10/08 10:10:35;;;;;;;3.40;1.40;;;;;;;;;;5135738;27;19927;-74
2022/10/08 10:13:19;;;;;;;9.88;1.73;;;;;;;;;;5130538;27;20050;-72
2022/10/08 10:16:12;;;;;;;5.93;1.27;;;;;;;;;;5130000;27;20043;-72
2022/10/08 10:18:43;;;;;;;1.70;1.00;;;;;;;;;;5129902;27;20061;-70
2022/10/08 10:21:20;;;;;;;4.07;1.30;;;;;;;;;;5129718;27;20507;-71
2022/10/08 10:24:10;;;;;;;5.93;1.13;;;;;;;;;;5129957;27;20047;-73
2022/10/08 10:26:43;;;;;;;4.25;1.20;;;;;;;;;;5128273;27;20035;-72
2022/10/08 10:29:20;;;;;;;9.57;1.80;;;;;;;;;;5127880;27;20051;-72
2022/10/08 10:32:08;;;;;;;9.15;1.65;;;;;;;;;;5129915;27;20050;-75
2022/10/08 10:34:46;;;;;;;8.75;3.28;;;;;;;;;;5111085;27;20055;-72
2022/10/08 10:37:29;;;;;;;2.85;1.52;;;;;;;;;;5128994;27;20047;-72
2022/10/08 10:40:34;;;;;;;7.97;1.48;;;;;;;;;;5128912;27;20047;-72
2022/10/08 10:43:20;;;;;;;6.53;1.75;;;;;;;;;;5125708;27;20516;-72
2022/10/08 10:46:16;;;;;;;8.50;1.40;;;;;;;;;;5129763;27;20046;-72
2022/10/08 10:48:48;;;;;;;4.13;1.23;;;;;;;;;;5129231;27;20051;-72
2022/10/08 10:51:38;;;;;;;6.93;1.30;;;;;;;;;;5129334;27;20043;-72
2022/10/08 10:54:25;;;;;;;5.80;1.60;;;;;;;;;;5129745;27;20035;-73
2022/10/08 10:57:16;;;;;;;8.45;1.42;;;;;;;;;;5129419;27;20050;-71
2022/10/08 11:00:21;;;;;;;5.18;1.30;;;;;;;;;;5129591;27;20035;-72
2022/10/08 11:02:54;;;;;;;19.63;2.53;;;;;;;;;;5129090;27;20054;-72
2022/10/08 11:05:32;;;;;;;10.32;1.80;;;;;;;;;;5128365;27;20051;-74
2022/10/08 11:08:33;;;;;;;8.80;2.45;;;;;;;;;;5130191;27;20062;-72
2022/10/08 11:11:17;;;;;;;5.93;1.55;;;;;;;;;;5128876;27;20501;-73
2022/10/08 11:14:10;;;;;;;8.30;1.88;;;;;;;;;;5129294;27;20054;-72
2022/10/08 11:16:46;;;;;;;4.63;1.20;;;;;;;;;;5128653;27;20050;-73
2022/10/08 11:19:36;;;;;;;4.50;1.35;;;;;;;;;;5128803;27;20050;-72
2022/10/08 11:22:22;;;;;;;9.13;1.90;;;;;;;;;;5128081;27;20054;-72
2022/10/08 11:25:32;;;;;;;5.43;1.52;;;;;;;;;;5128304;27;20050;-72
2022/10/08 11:28:28;;;;;;;8.70;1.20;;;;;;;;;;5128444;27;20050;-72
2022/10/08 11:31:16;;;;;;;5.22;1.50;;;;;;;;;;5128479;27;20043;-73
2022/10/08 11:33:50;;;;;;;4.40;1.30;;;;;;;;;;5128317;27;20042;-73
2022/10/08 11:36:35;;;;;;;7.57;3.13;;;;;;;;;;5128053;27;20043;-72
2022/10/08 11:39:23;;;;;;;5.03;1.50;;;;;;;;;;5126255;27;20065;-72
2022/10/08 11:42:01;;;;;;;3.85;1.42;;;;;;;;;;5126179;27;20054;-72
2022/10/08 11:44:31;;;;;;;3.67;1.10;;;;;;;;;;5127156;27;20403;-73
2022/10/08 11:47:40;;;;;;;2.10;1.08;;;;;;;;;;5128313;27;20047;-72
2022/10/08 11:50:39;;;;;;;2.95;1.20;;;;;;;;;;5128336;27;20043;-72
2022/10/08 11:53:09;;;;;;;6.95;1.30;;;;;;;;;;5115852;27;20077;-74
2022/10/08 11:55:52;;;;;;;6.32;1.63;;;;;;;;;;5127799;27;20702;-74
2022/10/08 11:58:30;;;;;;;10.07;1.48;;;;;;;;;;5128234;27;20051;-74
2022/10/08 12:01:08;;;;;;;5.28;1.60;;;;;;;;;;5128084;27;20051;-74
2022/10/08 12:03:41;;;;;;;3.53;1.40;;;;;;;;;;5128547;27;20054;-72
2022/10/08 12:06:27;;;;;;;2.60;1.33;;;;;;;;;;5127496;27;20065;-77
2022/10/08 12:09:04;;;;;;;10.85;1.50;;;;;;;;;;5127845;27;20043;-74
2022/10/08 12:11:36;;;;;;;5.32;1.35;;;;;;;;;;5127807;27;20054;-74
2022/10/08 12:14:13;;;;;;;4.07;1.27;;;;;;;;;;5128052;27;20397;-74
2022/10/08 12:16:55;;;;;;;3.05;1.20;;;;;;;;;;5127733;27;20047;-75
2022/10/08 12:19:37;;;;;;;2.70;1.52;;;;;;;;;;5128121;27;20385;-74
2022/10/08 12:22:16;;;;;;;6.47;1.58;;;;;;;;;;5127837;27;20046;-74
2022/10/08 12:24:53;;;;;;;4.18;1.35;;;;;;;;;;5127792;27;20047;-74
2022/10/08 12:27:27;;;;;;;4.82;3.90;;;;;;;;;;5127660;27;20062;-74
2022/10/08 12:29:57;;;;;;;2.90;1.27;;;;;;;;;;5127714;27;20054;-73
2022/10/08 12:32:49;;;;;;;2.10;1.20;;;;;;;;;;5127437;27;20520;-73
2022/10/08 12:35:24;;;;;;;3.17;1.35;;;;;;;;;;5127911;27;20108;-72
2022/10/08 12:38:14;;;;;;;11.00;1.83;;;;;;;;;;5127110;27;20054;-75
2022/10/08 12:41:15;;;;;;;8.00;1.45;;;;;;;;;;5127272;27;20047;-73
2022/10/08 12:43:57;;;;;;;4.85;1.40;;;;;;;;;;5125071;27;20058;-74
2022/10/08 12:46:54;;;;;;;5.55;1.40;;;;;;;;;;5127108;27;20039;-75
2022/10/08 12:49:37;;;;;;;6.22;1.52;;;;;;;;;;5126302;27;20039;-79
2022/10/08 12:52:10;;;;;;;6.05;1.20;;;;;;;;;;5127340;27;20042;-76
2022/10/08 12:55:00;;;;;;;4.22;1.30;;;;;;;;;;5126884;27;20047;-75
2022/10/08 12:57:33;;;;;;;5.15;1.42;;;;;;;;;;5126852;28;20047;-74
2022/10/08 13:00:31;;;;;;;2.47;1.05;;;;;;;;;;5126634;28;20050;-75
2022/10/08 13:03:16;;;;;;;3.95;1.23;;;;;;;;;;5125884;27;20055;-72
2022/10/08 13:05:46;;;;;;;6.22;0.95;;;;;;;;;;5128004;28;20042;-75
2022/10/08 13:08:30;;;;;;;1.10;0.80;;;;;;;;;;5126940;28;20050;-78
2022/10/08 13:11:07;;;;;;;2.05;1.20;;;;;;;;;;5127215;28;20043;-74
2022/10/08 13:13:37;;;;;;;3.08;1.80;;;;;;;;;;5125557;28;20509;-75
2022/10/08 13:16:10;;;;;;;5.72;0.90;;;;;;;;;;5127134;28;20051;-76
2022/10/08 13:18:44;;;;;;;2.78;1.00;;;;;;;;;;5127514;28;20416;-75
2022/10/08 13:21:31;;;;;;;0.77;0.73;;;;;;;;;;5127502;28;20481;-74
2022/10/08 13:24:11;;;;;;;0.90;0.70;;;;;;;;;;5126902;28;20051;-76
2022/10/08 13:26:52;;;;;;;7.85;1.20;;;;;;;;;;5126468;28;20047;-74
2022/10/08 13:29:36;;;;;;;2.55;0.80;;;;;;;;;;5127439;28;20050;-73
2022/10/08 13:32:12;;;;;;;1.42;0.68;;;;;;;;;;5125121;28;20054;-74
2022/10/08 13:35:19;;;;;;;2.55;0.95;;;;;;;;;;5127162;28;20051;-74
2022/10/08 13:37:53;;;;;;;5.45;1.25;;;;;;;;;;5124829;28;20047;-74
2022/10/08 13:40:24;;;;;;;6.40;1.27;;;;;;;;;;5126195;28;20364;-75
2022/10/08 13:42:57;;;;;;;5.97;1.77;;;;;;;;;;5126565;28;20043;-73
2022/10/08 13:45:35;;;;;;;2.17;0.93;;;;;;;;;;5127634;27;20050;-72
2022/10/08 13:48:10;;;;;;;0.82;0.80;;;;;;;;;;5130797;27;20047;-75
2022/10/08 13:50:49;;;;;;;1.65;0.90;;;;;;;;;;5130307;27;20050;-75
2022/10/08 13:53:21;;;;;;;3.00;1.05;;;;;;;;;;5130891;27;20046;-76
2022/10/08 13:55:52;;;;;;;1.60;0.80;;;;;;;;;;5131104;27;20091;-77
2022/10/08 13:58:21;;;;;;;3.53;1.00;;;;;;;;;;5130390;27;20047;-76
2022/10/08 14:00:53;;;;;;;3.28;1.00;;;;;;;;;;5131156;27;20065;-75
2022/10/08 14:03:23;;;;;;;3.60;1.20;;;;;;;;;;5130278;27;20047;-73
2022/10/08 14:05:53;;;;;;;9.27;1.50;;;;;;;;;;5130095;27;20058;-75
2022/10/08 14:08:28;;;;;;;2.75;0.80;;;;;;;;;;5136264;27;20580;-73
2022/10/08 14:11:00;;;;;;;2.38;0.90;;;;;;;;;;5139821;27;20047;-74
2022/10/08 14:13:30;;;;;;;4.45;1.17;;;;;;;;;;5133163;27;20109;-74
2022/10/08 14:15:59;;;;;;;2.38;1.13;;;;;;;;;;5128402;27;20043;-77
2022/10/08 14:18:29;;;;;;;5.32;3.38;;;;;;;;;;5128532;27;20070;-75
2022/10/08 14:20:59;;;;;;;4.10;1.02;;;;;;;;;;5129591;27;20062;-77
2022/10/08 14:23:31;;;;;;;2.33;0.93;;;;;;;;;;5130212;27;20050;-76
2022/10/08 14:26:01;;;;;;;2.20;0.93;;;;;;;;;;5129762;27;20493;-76
2022/10/08 14:28:30;;;;;;;2.60;1.10;;;;;;;;;;5129972;27;20050;-74
2022/10/08 14:31:00;;;;;;;2.00;0.93;;;;;;;;;;5129525;27;20051;-74
2022/10/08 14:33:30;;;;;;;2.47;0.95;;;;;;;;;;5129915;27;20058;-75
2022/10/08 14:36:00;;;;;;;1.05;0.65;;;;;;;;;;5130286;27;20047;-74
2022/10/08 14:38:31;;;;;;;4.32;1.02;;;;;;;;;;5129923;27;20039;-75
2022/10/08 14:41:01;;;;;;;3.47;1.15;;;;;;;;;;5129151;27;20051;-76
2022/10/08 14:43:32;;;;;;;2.63;1.02;;;;;;;;;;5129529;27;20051;-75
2022/10/08 14:46:03;;;;;;;1.70;1.20;;;;;;;;;;5129567;27;20683;-75
2022/10/08 14:48:34;;;;;;;2.05;1.05;;;;;;;;;;5129673;27;20043;-75
2022/10/08 14:51:04;;;;;;;1.65;0.90;;;;;;;;;;5129466;27;20043;-73
2022/10/08 14:53:33;;;;;;;3.97;1.00;;;;;;;;;;5129818;27;20043;-74
2022/10/08 14:56:04;;;;;;;3.22;0.93;;;;;;;;;;5128292;27;20051;-73
2022/10/08 14:58:40;;;;;;;4.32;0.93;;;;;;;;;;5129114;27;20039;-73
2022/10/08 15:01:10;;;;;;;3.60;1.10;;;;;;;;;;5128824;27;20048;-74
2022/10/08 15:03:40;;;;;;;1.50;0.85;;;;;;;;;;5129063;27;20096;-77
2022/10/08 15:06:10;;;;;;;4.22;1.00;;;;;;;;;;5127318;27;20073;-73
2022/10/08 15:08:40;;;;;;;3.97;1.42;;;;;;;;;;5128078;27;20050;-75
2022/10/08 15:11:11;;;;;;;5.82;1.30;;;;;;;;;;5128841;27;20493;-74
2022/10/08 15:13:41;;;;;;;4.03;1.02;;;;;;;;;;5128993;27;20046;-74
2022/10/08 15:16:14;;;;;;;2.85;0.90;;;;;;;;;;5129061;27;20054;-75
2022/10/08 15:18:44;;;;;;;1.48;1.00;;;;;;;;;;5128313;27;20047;-72
2022/10/08 15:21:13;;;;;;;2.78;1.00;;;;;;;;;;5129290;27;20043;-73
2022/10/08 15:23:43;;;;;;;1.58;0.95;;;;;;;;;;5128654;27;20047;-75
2022/10/08 15:26:15;;;;;;;3.63;1.35;;;;;;;;;;5128619;27;20043;-73
2022/10/08 15:28:46;;;;;;;2.28;1.02;;;;;;;;;;5127068;27;20058;-73
2022/10/08 15:31:17;;;;;;;2.90;1.50;;;;;;;;;;5128470;27;20047;-75
2022/10/08 15:33:49;;;;;;;5.57;2.35;;;;;;;;;;5128974;27;20046;-73
2022/10/08 15:36:32;;;;;;;5.57;1.27;;;;;;;;;;5129045;27;20048;-73
2022/10/08 15:39:16;;;;;;;3.10;1.33;;;;;;;;;;5127914;27;20417;-73
2022/10/08 15:41:49;;;;;;;5.22;1.17;;;;;;;;;;5129539;27;20047;-73
2022/10/08 15:44:27;;;;;;;3.00;1.40;;;;;;;;;;5128474;27;20412;-79
2022/10/08 15:47:06;;;;;;;3.72;1.13;;;;;;;;;;5128488;27;20043;-75
2022/10/08 15:49:39;;;;;;;1.60;0.90;;;;;;;;;;5128263;27;20043;-75
2022/10/08 15:52:14;;;;;;;2.13;0.90;;;;;;;;;;5128286;27;20047;-74
2022/10/08 15:54:46;;;;;;;2.58;1.02;;;;;;;;;;5127732;27;20051;-76
2022/10/08 15:57:17;;;;;;;3.08;1.10;;;;;;;;;;5127906;27;20047;-75